sensor_id;sensor_type;location;lat;lon;timestamp;P1;durP1;ratioP1;P2;durP2;ratioP2
16965;SDS011;8599;47.852;12.070;2024-01-06T00:02:00;17.73;;;9.40;;
16965;SDS011;8599;47.852;12.070;2024-01-06T00:04:26;18.83;;;9.57;;
16965;SDS011;8599;47.852;12.070;2024-01-06T00:06:55;27.40;;;11.00;;
16965;SDS011;8599;47.852;12.070;2024-01-06T00:09:21;21.23;;;9.13;;
16965;SDS011;8599;47.852;12.070;2024-01-06T00:11:48;22.33;;;10.57;;
16965;SDS011;8599;47.852;12.070;2024-01-06T00:14:15;21.53;;;9.77;;
16965;SDS011;8599;47.852;12.070;2024-01-06T00:16:42;25.27;;;10.83;;
16965;SDS011;8599;47.852;12.070;2024-01-06T00:19:09;21.53;;;10.43;;
16965;SDS011;8599;47.852;12.070;2024-01-06T00:21:36;18.00;;;10.33;;
16965;SDS011;8599;47.852;12.070;2024-01-06T00:24:04;22.70;;;11.70;;
16965;SDS011;8599;47.852;12.070;2024-01-06T00:26:31;20.70;;;10.63;;
16965;SDS011;8599;47.852;12.070;2024-01-06T00:28:58;29.67;;;12.40;;
16965;SDS011;8599;47.852;12.070;2024-01-06T00:31:24;19.83;;;11.60;;
16965;SDS011;8599;47.852;12.070;2024-01-06T00:33:51;22.40;;;12.13;;
16965;SDS011;8599;47.852;12.070;2024-01-06T00:36:18;21.60;;;11.07;;
16965;SDS011;8599;47.852;12.070;2024-01-06T00:38:45;23.20;;;11.17;;
16965;SDS011;8599;47.852;12.070;2024-01-06T00:41:13;22.60;;;11.60;;
16965;SDS011;8599;47.852;12.070;2024-01-06T00:43:40;22.27;;;11.30;;
16965;SDS011;8599;47.852;12.070;2024-01-06T00:46:07;31.90;;;13.87;;
16965;SDS011;8599;47.852;12.070;2024-01-06T00:48:33;23.07;;;11.63;;
16965;SDS011;8599;47.852;12.070;2024-01-06T00:51:00;26.50;;;12.07;;
16965;SDS011;8599;47.852;12.070;2024-01-06T00:53:27;24.87;;;12.60;;
16965;SDS011;8599;47.852;12.070;2024-01-06T00:55:54;26.90;;;14.07;;
16965;SDS011;8599;47.852;12.070;2024-01-06T00:58:22;30.27;;;13.10;;
16965;SDS011;8599;47.852;12.070;2024-01-06T01:00:49;24.03;;;12.50;;
16965;SDS011;8599;47.852;12.070;2024-01-06T01:03:16;24.73;;;13.13;;
16965;SDS011;8599;47.852;12.070;2024-01-06T01:05:43;31.93;;;13.37;;
16965;SDS011;8599;47.852;12.070;2024-01-06T01:08:09;30.63;;;12.83;;
16965;SDS011;8599;47.852;12.070;2024-01-06T01:10:36;22.03;;;11.40;;
16965;SDS011;8599;47.852;12.070;2024-01-06T01:13:03;29.17;;;12.97;;
16965;SDS011;8599;47.852;12.070;2024-01-06T01:15:31;24.77;;;12.97;;
16965;SDS011;8599;47.852;12.070;2024-01-06T01:17:58;23.00;;;12.43;;
16965;SDS011;8599;47.852;12.070;2024-01-06T01:20:25;21.50;;;11.93;;
16965;SDS011;8599;47.852;12.070;2024-01-06T01:22:52;25.57;;;11.87;;
16965;SDS011;8599;47.852;12.070;2024-01-06T01:25:19;25.67;;;11.77;;
16965;SDS011;8599;47.852;12.070;2024-01-06T01:27:45;27.53;;;12.33;;
16965;SDS011;8599;47.852;12.070;2024-01-06T01:30:12;19.77;;;10.83;;
16965;SDS011;8599;47.852;12.070;2024-01-06T01:32:41;21.40;;;11.70;;
16965;SDS011;8599;47.852;12.070;2024-01-06T01:35:08;21.83;;;11.53;;
16965;SDS011;8599;47.852;12.070;2024-01-06T01:37:35;22.40;;;10.67;;
16965;SDS011;8599;47.852;12.070;2024-01-06T01:40:02;22.17;;;10.80;;
16965;SDS011;8599;47.852;12.070;2024-01-06T01:42:29;17.97;;;10.27;;
16965;SDS011;8599;47.852;12.070;2024-01-06T01:44:55;19.67;;;10.27;;
16965;SDS011;8599;47.852;12.070;2024-01-06T01:47:22;20.40;;;10.10;;
16965;SDS011;8599;47.852;12.070;2024-01-06T01:49:50;17.97;;;10.13;;
16965;SDS011;8599;47.852;12.070;2024-01-06T01:52:20;23.87;;;11.20;;
16965;SDS011;8599;47.852;12.070;2024-01-06T01:54:47;22.37;;;11.10;;
16965;SDS011;8599;47.852;12.070;2024-01-06T01:57:14;21.90;;;10.57;;
16965;SDS011;8599;47.852;12.070;2024-01-06T01:59:42;21.27;;;11.80;;
16965;SDS011;8599;47.852;12.070;2024-01-06T02:02:09;22.37;;;11.13;;
16965;SDS011;8599;47.852;12.070;2024-01-06T02:04:36;23.80;;;11.47;;
16965;SDS011;8599;47.852;12.070;2024-01-06T02:07:04;21.57;;;10.97;;
16965;SDS011;8599;47.852;12.070;2024-01-06T02:09:31;18.77;;;10.80;;
16965;SDS011;8599;47.852;12.070;2024-01-06T02:11:58;20.37;;;11.07;;
16965;SDS011;8599;47.852;12.070;2024-01-06T02:14:25;18.53;;;10.90;;
16965;SDS011;8599;47.852;12.070;2024-01-06T02:16:51;21.90;;;10.43;;
16965;SDS011;8599;47.852;12.070;2024-01-06T02:19:18;18.57;;;10.57;;
16965;SDS011;8599;47.852;12.070;2024-01-06T02:21:48;21.27;;;10.03;;
16965;SDS011;8599;47.852;12.070;2024-01-06T02:24:17;20.07;;;10.77;;
16965;SDS011;8599;47.852;12.070;2024-01-06T02:26:43;24.43;;;11.03;;
16965;SDS011;8599;47.852;12.070;2024-01-06T02:29:10;21.13;;;11.17;;
16965;SDS011;8599;47.852;12.070;2024-01-06T02:31:37;23.63;;;11.17;;
16965;SDS011;8599;47.852;12.070;2024-01-06T02:34:04;19.90;;;9.90;;
16965;SDS011;8599;47.852;12.070;2024-01-06T02:36:31;19.23;;;9.93;;
16965;SDS011;8599;47.852;12.070;2024-01-06T02:38:59;17.30;;;9.53;;
16965;SDS011;8599;47.852;12.070;2024-01-06T02:41:26;15.57;;;9.23;;
16965;SDS011;8599;47.852;12.070;2024-01-06T02:43:53;19.20;;;9.63;;
16965;SDS011;8599;47.852;12.070;2024-01-06T02:46:21;15.77;;;9.20;;
16965;SDS011;8599;47.852;12.070;2024-01-06T02:48:48;16.23;;;8.27;;
16965;SDS011;8599;47.852;12.070;2024-01-06T02:51:14;15.53;;;9.07;;
16965;SDS011;8599;47.852;12.070;2024-01-06T02:53:41;15.17;;;9.00;;
16965;SDS011;8599;47.852;12.070;2024-01-06T02:56:10;17.27;;;9.80;;
16965;SDS011;8599;47.852;12.070;2024-01-06T02:58:38;18.33;;;10.10;;
16965;SDS011;8599;47.852;12.070;2024-01-06T03:01:05;20.17;;;9.53;;
16965;SDS011;8599;47.852;12.070;2024-01-06T03:03:32;18.00;;;8.90;;
16965;SDS011;8599;47.852;12.070;2024-01-06T03:05:58;20.33;;;8.70;;
16965;SDS011;8599;47.852;12.070;2024-01-06T03:08:25;12.80;;;8.73;;
16965;SDS011;8599;47.852;12.070;2024-01-06T03:10:52;13.17;;;8.43;;
16965;SDS011;8599;47.852;12.070;2024-01-06T03:13:20;20.53;;;9.73;;
16965;SDS011;8599;47.852;12.070;2024-01-06T03:15:47;15.60;;;9.50;;
16965;SDS011;8599;47.852;12.070;2024-01-06T03:18:14;14.40;;;8.50;;
16965;SDS011;8599;47.852;12.070;2024-01-06T03:20:41;12.57;;;8.53;;
16965;SDS011;8599;47.852;12.070;2024-01-06T03:23:08;18.90;;;9.33;;
16965;SDS011;8599;47.852;12.070;2024-01-06T03:25:34;21.73;;;9.33;;
16965;SDS011;8599;47.852;12.070;2024-01-06T03:28:01;14.07;;;8.67;;
16965;SDS011;8599;47.852;12.070;2024-01-06T03:30:30;15.60;;;9.17;;
16965;SDS011;8599;47.852;12.070;2024-01-06T03:32:56;18.37;;;8.80;;
16965;SDS011;8599;47.852;12.070;2024-01-06T03:35:23;13.47;;;8.57;;
16965;SDS011;8599;47.852;12.070;2024-01-06T03:37:50;11.57;;;7.93;;
16965;SDS011;8599;47.852;12.070;2024-01-06T03:40:17;15.87;;;8.60;;
16965;SDS011;8599;47.852;12.070;2024-01-06T03:42:43;13.87;;;8.70;;
16965;SDS011;8599;47.852;12.070;2024-01-06T03:45:10;16.53;;;9.07;;
16965;SDS011;8599;47.852;12.070;2024-01-06T03:47:38;13.57;;;7.37;;
16965;SDS011;8599;47.852;12.070;2024-01-06T03:50:05;9.97;;;7.70;;
16965;SDS011;8599;47.852;12.070;2024-01-06T03:52:32;12.60;;;7.77;;
16965;SDS011;8599;47.852;12.070;2024-01-06T03:54:59;14.33;;;6.87;;
16965;SDS011;8599;47.852;12.070;2024-01-06T03:57:26;12.00;;;6.10;;
16965;SDS011;8599;47.852;12.070;2024-01-06T03:59:53;9.43;;;6.43;;
16965;SDS011;8599;47.852;12.070;2024-01-06T04:02:20;10.57;;;6.37;;
16965;SDS011;8599;47.852;12.070;2024-01-06T04:04:48;10.00;;;5.43;;
16965;SDS011;8599;47.852;12.070;2024-01-06T04:07:15;8.73;;;5.53;;
16965;SDS011;8599;47.852;12.070;2024-01-06T04:09:42;5.13;;;4.00;;
16965;SDS011;8599;47.852;12.070;2024-01-06T04:12:09;6.00;;;4.50;;
16965;SDS011;8599;47.852;12.070;2024-01-06T04:14:36;9.50;;;5.53;;
16965;SDS011;8599;47.852;12.070;2024-01-06T04:17:03;6.33;;;3.80;;
16965;SDS011;8599;47.852;12.070;2024-01-06T04:19:30;5.63;;;3.70;;
16965;SDS011;8599;47.852;12.070;2024-01-06T04:21:59;4.70;;;3.20;;
16965;SDS011;8599;47.852;12.070;2024-01-06T04:24:26;3.53;;;2.50;;
16965;SDS011;8599;47.852;12.070;2024-01-06T04:26:53;3.37;;;3.07;;
16965;SDS011;8599;47.852;12.070;2024-01-06T04:29:20;3.60;;;3.30;;
16965;SDS011;8599;47.852;12.070;2024-01-06T04:31:47;4.70;;;3.13;;
16965;SDS011;8599;47.852;12.070;2024-01-06T04:34:13;2.50;;;2.30;;
16965;SDS011;8599;47.852;12.070;2024-01-06T04:36:40;3.00;;;2.20;;
16965;SDS011;8599;47.852;12.070;2024-01-06T04:39:08;4.17;;;2.20;;
16965;SDS011;8599;47.852;12.070;2024-01-06T04:41:37;4.17;;;2.43;;
16965;SDS011;8599;47.852;12.070;2024-01-06T04:44:05;5.57;;;3.00;;
16965;SDS011;8599;47.852;12.070;2024-01-06T04:46:32;3.77;;;2.60;;
16965;SDS011;8599;47.852;12.070;2024-01-06T04:48:59;3.60;;;3.07;;
16965;SDS011;8599;47.852;12.070;2024-01-06T04:51:26;7.20;;;2.90;;
16965;SDS011;8599;47.852;12.070;2024-01-06T04:53:52;4.23;;;3.00;;
16965;SDS011;8599;47.852;12.070;2024-01-06T04:56:20;5.37;;;3.40;;
16965;SDS011;8599;47.852;12.070;2024-01-06T04:58:47;5.33;;;3.63;;
16965;SDS011;8599;47.852;12.070;2024-01-06T05:01:14;3.67;;;3.13;;
16965;SDS011;8599;47.852;12.070;2024-01-06T05:03:41;5.07;;;3.47;;
16965;SDS011;8599;47.852;12.070;2024-01-06T05:06:08;4.77;;;3.60;;
16965;SDS011;8599;47.852;12.070;2024-01-06T05:08:35;3.63;;;3.10;;
16965;SDS011;8599;47.852;12.070;2024-01-06T05:11:06;7.13;;;3.60;;
16965;SDS011;8599;47.852;12.070;2024-01-06T05:13:34;5.80;;;4.07;;
16965;SDS011;8599;47.852;12.070;2024-01-06T05:16:01;4.80;;;4.10;;
16965;SDS011;8599;47.852;12.070;2024-01-06T05:18:28;4.23;;;3.40;;
16965;SDS011;8599;47.852;12.070;2024-01-06T05:20:55;3.80;;;3.40;;
16965;SDS011;8599;47.852;12.070;2024-01-06T05:23:22;5.17;;;3.20;;
16965;SDS011;8599;47.852;12.070;2024-01-06T05:25:49;6.57;;;3.90;;
16965;SDS011;8599;47.852;12.070;2024-01-06T05:28:16;6.13;;;3.83;;
16965;SDS011;8599;47.852;12.070;2024-01-06T05:30:44;6.77;;;3.97;;
16965;SDS011;8599;47.852;12.070;2024-01-06T05:33:11;6.93;;;4.50;;
16965;SDS011;8599;47.852;12.070;2024-01-06T05:35:40;7.00;;;4.60;;
16965;SDS011;8599;47.852;12.070;2024-01-06T05:38:07;8.77;;;5.07;;
16965;SDS011;8599;47.852;12.070;2024-01-06T05:40:34;6.77;;;4.90;;
16965;SDS011;8599;47.852;12.070;2024-01-06T05:43:00;7.47;;;5.20;;
16965;SDS011;8599;47.852;12.070;2024-01-06T05:45:28;7.47;;;4.63;;
16965;SDS011;8599;47.852;12.070;2024-01-06T05:47:56;6.97;;;5.40;;
16965;SDS011;8599;47.852;12.070;2024-01-06T05:50:23;7.70;;;4.73;;
16965;SDS011;8599;47.852;12.070;2024-01-06T05:52:49;9.17;;;6.13;;
16965;SDS011;8599;47.852;12.070;2024-01-06T05:55:17;9.87;;;5.40;;
16965;SDS011;8599;47.852;12.070;2024-01-06T05:57:45;9.27;;;6.13;;
16965;SDS011;8599;47.852;12.070;2024-01-06T06:00:12;9.97;;;5.67;;
16965;SDS011;8599;47.852;12.070;2024-01-06T06:02:39;10.60;;;5.90;;
16965;SDS011;8599;47.852;12.070;2024-01-06T06:05:08;6.97;;;5.37;;
16965;SDS011;8599;47.852;12.070;2024-01-06T06:07:35;7.07;;;5.33;;
16965;SDS011;8599;47.852;12.070;2024-01-06T06:10:05;7.17;;;5.23;;
16965;SDS011;8599;47.852;12.070;2024-01-06T06:12:33;11.20;;;6.00;;
16965;SDS011;8599;47.852;12.070;2024-01-06T06:15:00;10.40;;;6.10;;
16965;SDS011;8599;47.852;12.070;2024-01-06T06:17:28;11.57;;;5.83;;
16965;SDS011;8599;47.852;12.070;2024-01-06T06:19:55;10.17;;;5.63;;
16965;SDS011;8599;47.852;12.070;2024-01-06T06:22:24;9.00;;;5.53;;
16965;SDS011;8599;47.852;12.070;2024-01-06T06:24:55;9.87;;;5.87;;
16965;SDS011;8599;47.852;12.070;2024-01-06T06:27:21;7.57;;;5.77;;
16965;SDS011;8599;47.852;12.070;2024-01-06T06:29:48;8.20;;;6.10;;
16965;SDS011;8599;47.852;12.070;2024-01-06T06:32:15;8.27;;;5.87;;
16965;SDS011;8599;47.852;12.070;2024-01-06T06:34:42;9.17;;;5.40;;
16965;SDS011;8599;47.852;12.070;2024-01-06T06:37:10;8.67;;;5.73;;
16965;SDS011;8599;47.852;12.070;2024-01-06T06:39:38;6.37;;;4.97;;
16965;SDS011;8599;47.852;12.070;2024-01-06T06:42:05;8.27;;;5.23;;
16965;SDS011;8599;47.852;12.070;2024-01-06T06:44:32;6.57;;;5.07;;
16965;SDS011;8599;47.852;12.070;2024-01-06T06:46:59;8.80;;;5.30;;
16965;SDS011;8599;47.852;12.070;2024-01-06T06:49:26;10.23;;;4.90;;
16965;SDS011;8599;47.852;12.070;2024-01-06T06:51:53;5.43;;;4.17;;
16965;SDS011;8599;47.852;12.070;2024-01-06T06:54:21;6.63;;;4.60;;
16965;SDS011;8599;47.852;12.070;2024-01-06T06:56:49;11.10;;;5.03;;
16965;SDS011;8599;47.852;12.070;2024-01-06T06:59:15;8.60;;;4.50;;
16965;SDS011;8599;47.852;12.070;2024-01-06T07:01:42;6.23;;;4.60;;
16965;SDS011;8599;47.852;12.070;2024-01-06T07:04:09;4.77;;;4.00;;
16965;SDS011;8599;47.852;12.070;2024-01-06T07:06:36;4.60;;;3.90;;
16965;SDS011;8599;47.852;12.070;2024-01-06T07:09:03;7.93;;;3.40;;
16965;SDS011;8599;47.852;12.070;2024-01-06T07:11:30;6.87;;;4.33;;
16965;SDS011;8599;47.852;12.070;2024-01-06T07:13:58;4.63;;;3.70;;
16965;SDS011;8599;47.852;12.070;2024-01-06T07:16:25;5.33;;;3.80;;
16965;SDS011;8599;47.852;12.070;2024-01-06T07:18:51;4.43;;;3.80;;
16965;SDS011;8599;47.852;12.070;2024-01-06T07:21:18;5.83;;;3.60;;
16965;SDS011;8599;47.852;12.070;2024-01-06T07:23:45;5.37;;;3.93;;
16965;SDS011;8599;47.852;12.070;2024-01-06T07:26:12;3.50;;;3.20;;
16965;SDS011;8599;47.852;12.070;2024-01-06T07:28:39;6.43;;;3.83;;
16965;SDS011;8599;47.852;12.070;2024-01-06T07:31:07;4.87;;;3.20;;
16965;SDS011;8599;47.852;12.070;2024-01-06T07:33:34;6.03;;;3.70;;
16965;SDS011;8599;47.852;12.070;2024-01-06T07:36:00;4.90;;;2.77;;
16965;SDS011;8599;47.852;12.070;2024-01-06T07:38:27;4.20;;;3.10;;
16965;SDS011;8599;47.852;12.070;2024-01-06T07:40:56;4.50;;;3.50;;
16965;SDS011;8599;47.852;12.070;2024-01-06T07:43:22;4.67;;;3.50;;
16965;SDS011;8599;47.852;12.070;2024-01-06T07:45:49;6.50;;;3.47;;
16965;SDS011;8599;47.852;12.070;2024-01-06T07:48:17;6.67;;;4.40;;
16965;SDS011;8599;47.852;12.070;2024-01-06T07:50:44;6.80;;;4.93;;
16965;SDS011;8599;47.852;12.070;2024-01-06T07:53:11;7.70;;;4.30;;
16965;SDS011;8599;47.852;12.070;2024-01-06T07:55:38;7.07;;;5.07;;
16965;SDS011;8599;47.852;12.070;2024-01-06T07:58:05;8.93;;;5.43;;
16965;SDS011;8599;47.852;12.070;2024-01-06T08:00:32;9.30;;;5.37;;
16965;SDS011;8599;47.852;12.070;2024-01-06T08:02:59;10.67;;;5.97;;
16965;SDS011;8599;47.852;12.070;2024-01-06T08:05:28;10.07;;;5.43;;
16965;SDS011;8599;47.852;12.070;2024-01-06T08:07:54;7.80;;;5.60;;
16965;SDS011;8599;47.852;12.070;2024-01-06T08:10:21;7.50;;;5.03;;
16965;SDS011;8599;47.852;12.070;2024-01-06T08:12:48;10.20;;;5.23;;
16965;SDS011;8599;47.852;12.070;2024-01-06T08:15:15;9.20;;;5.07;;
16965;SDS011;8599;47.852;12.070;2024-01-06T08:17:41;8.03;;;4.90;;
16965;SDS011;8599;47.852;12.070;2024-01-06T08:20:09;7.07;;;4.80;;
16965;SDS011;8599;47.852;12.070;2024-01-06T08:22:37;6.63;;;3.90;;
16965;SDS011;8599;47.852;12.070;2024-01-06T08:25:04;6.10;;;4.00;;
16965;SDS011;8599;47.852;12.070;2024-01-06T08:27:32;7.30;;;3.90;;
16965;SDS011;8599;47.852;12.070;2024-01-06T08:29:59;6.27;;;3.43;;
16965;SDS011;8599;47.852;12.070;2024-01-06T08:32:26;8.03;;;3.27;;
16965;SDS011;8599;47.852;12.070;2024-01-06T08:34:53;3.13;;;2.83;;
16965;SDS011;8599;47.852;12.070;2024-01-06T08:37:19;5.73;;;3.27;;
16965;SDS011;8599;47.852;12.070;2024-01-06T08:39:48;3.00;;;2.30;;
16965;SDS011;8599;47.852;12.070;2024-01-06T08:42:14;5.60;;;2.83;;
16965;SDS011;8599;47.852;12.070;2024-01-06T08:44:41;5.50;;;3.10;;
16965;SDS011;8599;47.852;12.070;2024-01-06T08:47:09;3.43;;;2.90;;
16965;SDS011;8599;47.852;12.070;2024-01-06T08:49:35;5.23;;;3.40;;
16965;SDS011;8599;47.852;12.070;2024-01-06T08:52:02;3.73;;;2.57;;
16965;SDS011;8599;47.852;12.070;2024-01-06T08:54:30;3.93;;;2.90;;
16965;SDS011;8599;47.852;12.070;2024-01-06T08:56:58;3.93;;;2.30;;
16965;SDS011;8599;47.852;12.070;2024-01-06T08:59:25;2.33;;;2.10;;
16965;SDS011;8599;47.852;12.070;2024-01-06T09:01:52;4.50;;;2.33;;
16965;SDS011;8599;47.852;12.070;2024-01-06T09:04:19;3.10;;;2.13;;
16965;SDS011;8599;47.852;12.070;2024-01-06T09:06:45;5.30;;;2.20;;
16965;SDS011;8599;47.852;12.070;2024-01-06T09:09:13;2.20;;;1.90;;
16965;SDS011;8599;47.852;12.070;2024-01-06T09:11:40;6.43;;;2.03;;
16965;SDS011;8599;47.852;12.070;2024-01-06T09:14:10;3.37;;;2.10;;
16965;SDS011;8599;47.852;12.070;2024-01-06T09:16:37;4.37;;;2.70;;
16965;SDS011;8599;47.852;12.070;2024-01-06T09:19:04;2.33;;;2.00;;
16965;SDS011;8599;47.852;12.070;2024-01-06T09:21:31;4.97;;;2.20;;
16965;SDS011;8599;47.852;12.070;2024-01-06T09:23:58;2.13;;;1.70;;
16965;SDS011;8599;47.852;12.070;2024-01-06T09:26:25;2.70;;;1.77;;
16965;SDS011;8599;47.852;12.070;2024-01-06T09:28:52;2.53;;;1.60;;
16965;SDS011;8599;47.852;12.070;2024-01-06T09:31:20;2.77;;;2.07;;
16965;SDS011;8599;47.852;12.070;2024-01-06T09:33:48;2.90;;;2.17;;
16965;SDS011;8599;47.852;12.070;2024-01-06T09:36:15;3.00;;;1.90;;
16965;SDS011;8599;47.852;12.070;2024-01-06T09:38:42;1.33;;;1.23;;
16965;SDS011;8599;47.852;12.070;2024-01-06T09:41:09;3.30;;;1.20;;
16965;SDS011;8599;47.852;12.070;2024-01-06T09:43:36;1.47;;;1.37;;
16965;SDS011;8599;47.852;12.070;2024-01-06T09:46:05;1.40;;;1.30;;
16965;SDS011;8599;47.852;12.070;2024-01-06T09:48:39;1.97;;;1.40;;
16965;SDS011;8599;47.852;12.070;2024-01-06T09:51:08;1.97;;;1.30;;
16965;SDS011;8599;47.852;12.070;2024-01-06T09:53:38;2.30;;;1.60;;
16965;SDS011;8599;47.852;12.070;2024-01-06T09:56:09;2.17;;;1.67;;
16965;SDS011;8599;47.852;12.070;2024-01-06T09:58:37;2.90;;;1.77;;
16965;SDS011;8599;47.852;12.070;2024-01-06T10:01:06;2.10;;;1.70;;
16965;SDS011;8599;47.852;12.070;2024-01-06T10:03:33;3.07;;;1.87;;
16965;SDS011;8599;47.852;12.070;2024-01-06T10:06:03;3.83;;;1.80;;
16965;SDS011;8599;47.852;12.070;2024-01-06T10:08:30;2.63;;;1.83;;
16965;SDS011;8599;47.852;12.070;2024-01-06T10:10:57;3.40;;;2.20;;
16965;SDS011;8599;47.852;12.070;2024-01-06T10:13:25;3.60;;;2.23;;
16965;SDS011;8599;47.852;12.070;2024-01-06T10:15:53;2.37;;;2.03;;
16965;SDS011;8599;47.852;12.070;2024-01-06T10:18:20;3.27;;;2.17;;
16965;SDS011;8599;47.852;12.070;2024-01-06T10:20:47;5.13;;;1.97;;
16965;SDS011;8599;47.852;12.070;2024-01-06T10:23:17;2.93;;;1.87;;
16965;SDS011;8599;47.852;12.070;2024-01-06T10:25:44;9.27;;;2.23;;
16965;SDS011;8599;47.852;12.070;2024-01-06T10:28:11;4.20;;;2.17;;
16965;SDS011;8599;47.852;12.070;2024-01-06T10:30:38;2.03;;;1.87;;
16965;SDS011;8599;47.852;12.070;2024-01-06T10:33:07;3.20;;;1.40;;
16965;SDS011;8599;47.852;12.070;2024-01-06T10:35:35;3.47;;;1.80;;
16965;SDS011;8599;47.852;12.070;2024-01-06T10:38:02;4.43;;;2.30;;
16965;SDS011;8599;47.852;12.070;2024-01-06T10:40:31;3.80;;;1.30;;
16965;SDS011;8599;47.852;12.070;2024-01-06T10:42:58;1.80;;;1.00;;
16965;SDS011;8599;47.852;12.070;2024-01-06T10:45:27;1.27;;;1.17;;
16965;SDS011;8599;47.852;12.070;2024-01-06T10:47:55;1.90;;;1.20;;
16965;SDS011;8599;47.852;12.070;2024-01-06T10:50:24;2.73;;;1.00;;
16965;SDS011;8599;47.852;12.070;2024-01-06T10:52:53;1.20;;;1.10;;
16965;SDS011;8599;47.852;12.070;2024-01-06T10:55:22;2.13;;;1.60;;
16965;SDS011;8599;47.852;12.070;2024-01-06T10:57:52;4.30;;;1.57;;
16965;SDS011;8599;47.852;12.070;2024-01-06T11:00:20;2.70;;;1.40;;
16965;SDS011;8599;47.852;12.070;2024-01-06T11:02:47;2.67;;;1.57;;
16965;SDS011;8599;47.852;12.070;2024-01-06T11:05:17;2.30;;;1.77;;
16965;SDS011;8599;47.852;12.070;2024-01-06T11:07:46;1.50;;;1.40;;
16965;SDS011;8599;47.852;12.070;2024-01-06T11:10:17;1.73;;;1.47;;
16965;SDS011;8599;47.852;12.070;2024-01-06T11:12:45;2.20;;;1.67;;
16965;SDS011;8599;47.852;12.070;2024-01-06T11:15:39;2.23;;;1.70;;
16965;SDS011;8599;47.852;12.070;2024-01-06T11:18:07;4.63;;;1.80;;
16965;SDS011;8599;47.852;12.070;2024-01-06T11:20:34;3.27;;;2.00;;
16965;SDS011;8599;47.852;12.070;2024-01-06T11:25:44;1.90;;;1.67;;
16965;SDS011;8599;47.852;12.070;2024-01-06T11:28:11;2.20;;;1.43;;
16965;SDS011;8599;47.852;12.070;2024-01-06T11:30:40;3.00;;;1.70;;
16965;SDS011;8599;47.852;12.070;2024-01-06T11:33:08;2.07;;;1.80;;
16965;SDS011;8599;47.852;12.070;2024-01-06T11:35:36;5.53;;;1.93;;
16965;SDS011;8599;47.852;12.070;2024-01-06T11:38:06;1.63;;;1.53;;
16965;SDS011;8599;47.852;12.070;2024-01-06T11:40:33;1.50;;;1.40;;
16965;SDS011;8599;47.852;12.070;2024-01-06T11:43:02;1.27;;;1.10;;
16965;SDS011;8599;47.852;12.070;2024-01-06T11:45:30;1.60;;;0.93;;
16965;SDS011;8599;47.852;12.070;2024-01-06T11:48:00;1.70;;;1.03;;
16965;SDS011;8599;47.852;12.070;2024-01-06T11:50:28;1.27;;;1.17;;
16965;SDS011;8599;47.852;12.070;2024-01-06T11:52:56;3.10;;;1.37;;
16965;SDS011;8599;47.852;12.070;2024-01-06T11:55:24;1.60;;;1.50;;
16965;SDS011;8599;47.852;12.070;2024-01-06T11:57:53;3.83;;;2.17;;
16965;SDS011;8599;47.852;12.070;2024-01-06T12:00:21;7.40;;;5.17;;
16965;SDS011;8599;47.852;12.070;2024-01-06T12:02:48;5.20;;;3.27;;
16965;SDS011;8599;47.852;12.070;2024-01-06T12:05:16;5.33;;;2.87;;
16965;SDS011;8599;47.852;12.070;2024-01-06T12:07:52;4.37;;;2.13;;
16965;SDS011;8599;47.852;12.070;2024-01-06T12:10:20;13.07;;;6.27;;
16965;SDS011;8599;47.852;12.070;2024-01-06T12:12:54;4.70;;;1.87;;
16965;SDS011;8599;47.852;12.070;2024-01-06T12:15:24;2.00;;;1.70;;
16965;SDS011;8599;47.852;12.070;2024-01-06T12:17:52;3.47;;;3.07;;
16965;SDS011;8599;47.852;12.070;2024-01-06T12:20:20;7.63;;;3.80;;
16965;SDS011;8599;47.852;12.070;2024-01-06T12:22:47;6.57;;;4.77;;
16965;SDS011;8599;47.852;12.070;2024-01-06T12:25:14;6.43;;;3.63;;
16965;SDS011;8599;47.852;12.070;2024-01-06T12:27:42;5.20;;;2.60;;
16965;SDS011;8599;47.852;12.070;2024-01-06T12:30:12;4.13;;;2.50;;
16965;SDS011;8599;47.852;12.070;2024-01-06T12:32:41;4.60;;;2.00;;
16965;SDS011;8599;47.852;12.070;2024-01-06T12:35:09;2.67;;;2.03;;
16965;SDS011;8599;47.852;12.070;2024-01-06T12:37:38;5.00;;;3.00;;
16965;SDS011;8599;47.852;12.070;2024-01-06T12:40:05;4.17;;;1.93;;
16965;SDS011;8599;47.852;12.070;2024-01-06T12:42:35;5.53;;;3.53;;
16965;SDS011;8599;47.852;12.070;2024-01-06T12:45:03;2.93;;;2.47;;
16965;SDS011;8599;47.852;12.070;2024-01-06T12:47:30;2.93;;;1.97;;
16965;SDS011;8599;47.852;12.070;2024-01-06T12:49:57;5.47;;;2.10;;
16965;SDS011;8599;47.852;12.070;2024-01-06T12:52:24;3.90;;;2.33;;
16965;SDS011;8599;47.852;12.070;2024-01-06T12:54:52;4.43;;;2.80;;
16965;SDS011;8599;47.852;12.070;2024-01-06T12:57:19;4.87;;;1.93;;
16965;SDS011;8599;47.852;12.070;2024-01-06T12:59:47;7.73;;;3.27;;
16965;SDS011;8599;47.852;12.070;2024-01-06T13:02:14;8.50;;;3.33;;
16965;SDS011;8599;47.852;12.070;2024-01-06T13:04:41;6.87;;;3.13;;
16965;SDS011;8599;47.852;12.070;2024-01-06T13:07:08;6.23;;;3.43;;
16965;SDS011;8599;47.852;12.070;2024-01-06T13:09:35;3.57;;;3.03;;
16965;SDS011;8599;47.852;12.070;2024-01-06T13:12:04;3.47;;;2.60;;
16965;SDS011;8599;47.852;12.070;2024-01-06T13:14:31;4.97;;;2.70;;
16965;SDS011;8599;47.852;12.070;2024-01-06T13:16:58;2.27;;;2.07;;
16965;SDS011;8599;47.852;12.070;2024-01-06T13:19:25;4.37;;;3.00;;
16965;SDS011;8599;47.852;12.070;2024-01-06T13:21:52;3.27;;;2.50;;
16965;SDS011;8599;47.852;12.070;2024-01-06T13:24:19;4.40;;;2.70;;
16965;SDS011;8599;47.852;12.070;2024-01-06T13:26:45;5.03;;;2.93;;
16965;SDS011;8599;47.852;12.070;2024-01-06T13:29:14;3.57;;;2.57;;
16965;SDS011;8599;47.852;12.070;2024-01-06T13:31:43;2.87;;;2.53;;
16965;SDS011;8599;47.852;12.070;2024-01-06T13:34:09;2.33;;;2.00;;
16965;SDS011;8599;47.852;12.070;2024-01-06T13:36:36;1.60;;;1.50;;
16965;SDS011;8599;47.852;12.070;2024-01-06T13:39:03;4.03;;;3.07;;
16965;SDS011;8599;47.852;12.070;2024-01-06T13:41:31;2.07;;;1.83;;
16965;SDS011;8599;47.852;12.070;2024-01-06T13:43:58;4.20;;;2.93;;
16965;SDS011;8599;47.852;12.070;2024-01-06T13:46:26;3.63;;;1.60;;
16965;SDS011;8599;47.852;12.070;2024-01-06T13:48:53;2.60;;;1.63;;
16965;SDS011;8599;47.852;12.070;2024-01-06T13:51:20;1.47;;;1.37;;
16965;SDS011;8599;47.852;12.070;2024-01-06T13:53:47;5.93;;;2.27;;
16965;SDS011;8599;47.852;12.070;2024-01-06T13:56:14;2.73;;;1.67;;
16965;SDS011;8599;47.852;12.070;2024-01-06T13:58:41;2.53;;;1.70;;
16965;SDS011;8599;47.852;12.070;2024-01-06T14:01:08;3.17;;;1.90;;
16965;SDS011;8599;47.852;12.070;2024-01-06T14:03:37;2.37;;;1.83;;
16965;SDS011;8599;47.852;12.070;2024-01-06T14:06:04;2.60;;;2.33;;
16965;SDS011;8599;47.852;12.070;2024-01-06T14:08:32;2.87;;;2.43;;
16965;SDS011;8599;47.852;12.070;2024-01-06T14:10:59;4.57;;;2.60;;
16965;SDS011;8599;47.852;12.070;2024-01-06T14:13:26;4.03;;;2.83;;
16965;SDS011;8599;47.852;12.070;2024-01-06T14:15:52;5.23;;;3.07;;
16965;SDS011;8599;47.852;12.070;2024-01-06T14:18:19;5.93;;;2.73;;
16965;SDS011;8599;47.852;12.070;2024-01-06T14:20:48;8.10;;;3.57;;
16965;SDS011;8599;47.852;12.070;2024-01-06T14:23:14;5.23;;;3.60;;
16965;SDS011;8599;47.852;12.070;2024-01-06T14:25:41;10.67;;;5.60;;
16965;SDS011;8599;47.852;12.070;2024-01-06T14:28:08;7.60;;;4.30;;
16965;SDS011;8599;47.852;12.070;2024-01-06T14:30:35;15.47;;;6.83;;
16965;SDS011;8599;47.852;12.070;2024-01-06T14:33:02;6.50;;;4.83;;
16965;SDS011;8599;47.852;12.070;2024-01-06T14:35:28;10.87;;;6.73;;
16965;SDS011;8599;47.852;12.070;2024-01-06T14:37:57;7.83;;;4.50;;
16965;SDS011;8599;47.852;12.070;2024-01-06T14:40:23;4.50;;;3.40;;
16965;SDS011;8599;47.852;12.070;2024-01-06T14:42:51;4.90;;;3.30;;
16965;SDS011;8599;47.852;12.070;2024-01-06T14:45:18;5.47;;;3.67;;